Terminal Aerodrome Forecast
Issued by NWS

Home | Current Version | Previous Version | Text Only | Print | Product List | Glossary On
Versions: 1 2 3 4 5 6 7 8 9 10 11 12 13 14 15 16 17 18 19
000
FTUS41 KBTV 231700
TAFMSS
TAF
KMSS 231728Z 2318/2418 05008KT P6SM SCT040
     FM240000 06004KT P6SM SKC
     FM240600 00000KT 3SM BR SCT003
     FM241200 VRB03KT P6SM SKC=

USA.gov is the U.S. government's official web portal to all federal, state and local government web resources and services.